Time;durP1;ratioP1;P1;durP2;ratioP2;P2;SDS_P1;SDS_P2;PMS_P1;PMS_P2;Temp;Humidity;BMP_temperature;BMP_pressure;BME280_temperature;BME280_humidity;BME280_pressure;Samples;Min_cycle;Max_cycle;Signal;HPM_P1;HPM_P2
2023/05/22 00:01:19;;;;;;;18.07;14.43;;;21.10;99.90;;;;;;4878990;29;20438;-81
2023/05/22 00:05:10;;;;;;;18.47;14.17;;;21.00;99.90;;;;;;4917046;29;20537;-81
2023/05/22 00:08:37;;;;;;;16.00;14.23;;;20.90;99.90;;;;;;4919656;29;20480;-82
2023/05/22 00:11:49;;;;;;;;;;;;;;;;;;;;;
2023/05/22 00:15:23;;;;;;;;;;;;;;;;;;;;;
2023/05/22 00:22:46;;;;;;;;;;;;;;;;;;;;;
2023/05/22 00:26:01;;;;;;;14.60;12.97;;;20.70;99.90;;;;;;4942220;29;20473;-84
2023/05/22 00:29:11;;;;;;;14.83;12.93;;;20.70;99.90;;;;;;4921847;29;20468;-82
2023/05/22 00:32:57;;;;;;;;;;;;;;;;;;;;;
2023/05/22 00:36:22;;;;;;;16.53;12.40;;;20.60;99.90;;;;;;4970091;23;20531;-83
2023/05/22 00:40:05;;;;;;;;;;;;;;;;;;;;;
2023/05/22 00:47:01;;;;;;;;;;;;;;;;;;;;;
2023/05/22 00:57:31;;;;;;;;;;;;;;;;;;;;;
2023/05/22 01:00:26;;;;;;;12.90;11.37;;;20.50;99.90;;;;;;4822427;29;20450;-84
2023/05/22 01:04:00;;;;;;;12.70;11.17;;;20.50;99.90;;;;;;4833344;29;20450;-80
2023/05/22 01:07:22;;;;;;;12.23;10.87;;;20.50;99.90;;;;;;4831757;29;20449;-82
2023/05/22 01:22:57;;;;;;;10.90;9.67;;;20.30;99.90;;;;;;1293505;26;20719;-83
2023/05/22 01:33:56;;;;;;;11.57;10.30;;;20.20;99.90;;;;;;5006000;28;20471;-83
2023/05/22 01:37:09;;;;;;;12.37;10.43;;;20.20;99.90;;;;;;4998902;28;20462;-82
2023/05/22 01:40:32;;;;;;;11.93;9.60;;;20.10;99.90;;;;;;4997880;28;20439;-83
2023/05/22 01:47:22;;;;;;;11.47;10.27;;;20.10;99.90;;;;;;4912876;28;20473;-82
2023/05/22 01:50:49;;;;;;;;;;;;;;;;;;;;;
2023/05/22 01:53:55;;;;;;;13.70;11.70;;;20.60;99.90;;;;;;5000349;28;20455;-82
2023/05/22 01:56:55;;;;;;;12.80;11.37;;;20.40;99.90;;;;;;4991683;28;20451;-83
2023/05/22 01:59:57;;;;;;;12.60;10.73;;;20.50;99.90;;;;;;4983655;28;20448;-81
2023/05/22 02:03:21;;;;;;;13.57;11.70;;;20.30;99.90;;;;;;4923757;29;20493;-82
2023/05/22 02:06:25;;;;;;;13.57;11.33;;;20.30;99.90;;;;;;4930442;29;20480;-82
2023/05/22 02:09:44;;;;;;;13.93;12.30;;;20.40;99.90;;;;;;4935421;29;20471;-82
2023/05/22 02:12:53;;;;;;;11.87;10.57;;;20.10;99.90;;;;;;4917858;29;20452;-82
2023/05/22 02:16:27;;;;;;;14.40;12.17;;;20.00;99.90;;;;;;4904512;29;20564;-82
2023/05/22 02:19:32;;;;;;;14.70;12.00;;;20.00;99.90;;;;;;4925743;29;20470;-83
2023/05/22 02:22:34;;;;;;;;;;;;;;;;;;;;;
2023/05/22 02:29:18;;;;;;;15.40;12.10;;;19.90;99.90;;;;;;4952017;28;20462;-83
2023/05/22 02:32:16;;;;;;;12.60;11.30;;;19.80;99.90;;;;;;4939322;28;20546;-82
2023/05/22 02:42:28;;;;;;;15.80;12.33;;;19.70;99.90;;;;;;5015071;28;20451;-83
2023/05/22 02:49:09;;;;;;;14.03;12.50;;;19.70;99.90;;;;;;4991180;28;20489;-83
2023/05/22 02:55:51;;;;;;;;;;;;;;;;;;;;;
2023/05/22 02:59:18;;;;;;;14.60;13.00;;;19.60;99.90;;;;;;4995584;28;20455;-82
2023/05/22 03:02:18;;;;;;;14.63;12.23;;;19.60;99.90;;;;;;4917316;29;20435;-83
2023/05/22 03:05:16;;;;;;;16.33;12.87;;;19.60;99.90;;;;;;4930116;29;20479;-83
2023/05/22 03:08:00;;;;;;;14.83;12.60;;;19.60;99.90;;;;;;4966907;28;20461;-82
2023/05/22 03:10:55;;;;;;;17.10;13.33;;;19.60;99.90;;;;;;4990015;28;20459;-83
2023/05/22 03:13:31;;;;;;;14.20;12.50;;;19.60;99.90;;;;;;4983638;28;20701;-82
2023/05/22 03:16:11;;;;;;;16.23;13.40;;;19.50;99.90;;;;;;4988404;28;20435;-82
2023/05/22 03:18:44;;;;;;;16.37;13.57;;;19.50;99.90;;;;;;4991247;28;20799;-84
2023/05/22 03:25:14;;;;;;;20.60;16.03;;;19.50;99.90;;;;;;4898643;29;20499;-82
2023/05/22 03:28:07;;;;;;;22.50;16.13;;;19.40;99.90;;;;;;4877521;29;20886;-83
2023/05/22 03:30:59;;;;;;;20.87;16.80;;;19.30;99.90;;;;;;4898048;29;21060;-81
2023/05/22 03:34:21;;;;;;;22.60;17.87;;;19.30;99.90;;;;;;4812441;29;20491;-83
2023/05/22 03:37:14;;;;;;;20.90;16.87;;;19.30;99.90;;;;;;4810794;29;21450;-81
2023/05/22 03:40:03;;;;;;;26.03;17.90;;;19.30;99.90;;;;;;4811454;29;20481;-82
2023/05/22 03:42:44;;;;;;;21.10;15.50;;;19.20;99.90;;;;;;4824273;29;20463;-82
2023/05/22 03:45:32;;;;;;;21.23;16.20;;;19.20;99.90;;;;;;4810124;29;20546;-83
2023/05/22 03:48:11;;;;;;;21.10;15.80;;;19.20;99.90;;;;;;4810708;29;20455;-83
2023/05/22 03:50:48;;;;;;;20.90;16.17;;;19.20;99.90;;;;;;4840425;29;20463;-83
2023/05/22 03:53:31;;;;;;;18.10;14.47;;;19.20;99.90;;;;;;4886820;29;20572;-83
2023/05/22 03:56:07;;;;;;;20.63;15.43;;;19.10;99.90;;;;;;4902039;29;20487;-83
2023/05/22 04:05:25;;;;;;;20.63;14.27;;;19.10;99.90;;;;;;4957184;28;20476;-82
2023/05/22 04:08:15;;;;;;;19.00;14.83;;;19.10;99.90;;;;;;4974994;28;20451;-82
2023/05/22 04:11:07;;;;;;;18.30;13.80;;;19.10;99.90;;;;;;4973849;28;20584;-82
2023/05/22 04:14:12;;;;;;;15.90;12.83;;;19.10;99.90;;;;;;4974164;28;20439;-82
2023/05/22 04:17:00;;;;;;;20.80;15.57;;;19.00;99.90;;;;;;4995011;28;20453;-83
2023/05/22 04:19:32;;;;;;;16.77;14.97;;;19.00;99.90;;;;;;4992244;28;20455;-82
2023/05/22 04:22:16;;;;;;;20.33;14.70;;;18.90;99.90;;;;;;4995157;28;20852;-84
2023/05/22 04:24:51;;;;;;;22.47;15.20;;;18.90;99.90;;;;;;4972048;28;20483;-83
2023/05/22 04:27:51;;;;;;;17.33;13.93;;;18.90;99.90;;;;;;4982344;28;20443;-83
2023/05/22 04:30:35;;;;;;;16.20;14.10;;;18.90;99.90;;;;;;4997921;28;20541;-82
2023/05/22 04:36:24;;;;;;;17.70;13.60;;;18.90;99.90;;;;;;4990416;28;20555;-82
2023/05/22 04:39:15;;;;;;;19.20;14.07;;;18.90;99.90;;;;;;4980765;28;20535;-82
2023/05/22 04:42:16;;;;;;;21.33;14.80;;;19.00;99.90;;;;;;4997941;28;20474;-82
2023/05/22 04:45:09;;;;;;;17.53;13.87;;;18.90;99.90;;;;;;4998673;28;20863;-81
2023/05/22 04:47:55;;;;;;;16.13;13.27;;;18.90;99.90;;;;;;4973684;28;20452;-82
2023/05/22 04:50:57;;;;;;;18.20;13.83;;;18.90;99.90;;;;;;4999199;28;20535;-81
2023/05/22 04:53:51;;;;;;;17.90;14.57;;;18.90;99.90;;;;;;4982071;28;20470;-81
2023/05/22 04:56:50;;;;;;;18.33;14.17;;;18.90;99.90;;;;;;4972404;28;20486;-83
2023/05/22 05:00:00;;;;;;;21.07;14.53;;;18.90;99.90;;;;;;4987190;28;20531;-82
2023/05/22 05:13:32;;;;;;;20.23;15.23;;;19.10;99.90;;;;;;4918439;29;20490;-82
2023/05/22 05:16:41;;;;;;;18.50;15.30;;;19.10;99.90;;;;;;4903163;29;20497;-83
2023/05/22 05:19:36;;;;;;;21.00;17.23;;;19.10;99.90;;;;;;4909708;29;20442;-82
2023/05/22 05:22:52;;;;;;;20.27;16.20;;;19.10;99.90;;;;;;4917341;29;20491;-81
2023/05/22 05:30:23;;;;;;;19.97;15.60;;;19.10;99.90;;;;;;4920442;29;20961;-82
2023/05/22 05:33:18;;;;;;;18.40;15.90;;;19.10;99.90;;;;;;4920631;29;20478;-82
2023/05/22 05:36:30;;;;;;;20.80;16.20;;;19.20;99.90;;;;;;4901877;29;20505;-82
2023/05/22 05:54:03;;;;;;;20.43;16.67;;;19.50;99.90;;;;;;5001132;28;20486;-80
2023/05/22 05:57:21;;;;;;;19.37;16.10;;;19.80;99.90;;;;;;5006360;28;20455;-80
2023/05/22 06:00:55;;;;;;;17.90;15.97;;;19.80;99.90;;;;;;4957152;28;20457;-82
2023/05/22 06:04:57;;;;;;;20.23;17.13;;;19.70;99.90;;;;;;4954975;28;20880;-83
2023/05/22 06:08:41;;;;;;;;;;;;;;;;;;;;;
2023/05/22 06:17:51;;;;;;;20.87;15.40;;;19.50;99.90;;;;;;4973287;23;20889;-83
2023/05/22 06:25:33;;;;;;;20.30;16.20;;;19.30;99.90;;;;;;4974115;28;20469;-81
2023/05/22 06:29:04;;;;;;;25.27;19.50;;;19.50;99.90;;;;;;4913297;29;20991;-83
2023/05/22 06:36:03;;;;;;;27.33;19.53;;;19.50;99.90;;;;;;4908474;29;20530;-82
2023/05/22 06:39:21;;;;;;;27.90;19.93;;;19.60;99.90;;;;;;4875663;29;20476;-82
2023/05/22 06:42:29;;;;;;;27.27;18.07;;;19.50;99.90;;;;;;4922519;29;20518;-83
2023/05/22 06:45:24;;;;;;;29.50;20.23;;;19.60;99.90;;;;;;4920171;29;20501;-82
2023/05/22 06:49:19;;;;;;;;;;;;;;;;;;;;;
2023/05/22 06:57:33;;;;;;;;;;;;;;;;;;;;;
2023/05/22 07:01:17;;;;;;;29.07;21.90;;;19.80;99.90;;;;;;4913672;29;20531;-81
2023/05/22 07:04:31;;;;;;;30.63;20.77;;;19.80;99.90;;;;;;4875677;29;20473;-81
2023/05/22 07:08:07;;;;;;;31.83;20.90;;;19.80;99.90;;;;;;4936574;29;20508;-81
2023/05/22 07:11:41;;;;;;;29.53;22.00;;;19.90;99.90;;;;;;4877862;29;20571;-81
2023/05/22 07:18:56;;;;;;;29.23;21.93;;;19.90;99.90;;;;;;4911358;29;20647;-81
2023/05/22 07:22:10;;;;;;;31.13;22.03;;;19.90;99.90;;;;;;4898089;29;20462;-80
2023/05/22 07:24:54;;;;;;;34.60;22.40;;;20.00;99.90;;;;;;4920277;29;20474;-80
2023/05/22 07:28:11;;;;;;;34.80;24.33;;;20.10;99.90;;;;;;5019793;28;20459;-81
2023/05/22 07:31:28;;;;;;;33.20;23.73;;;20.20;99.90;;;;;;5085273;28;20475;-82
2023/05/22 07:34:12;;;;;;;34.70;24.30;;;20.20;99.90;;;;;;5072495;28;20451;-81
2023/05/22 07:37:35;;;;;;;34.77;24.27;;;20.10;99.90;;;;;;4978522;28;20502;-83
2023/05/22 07:41:03;;;;;;;34.07;23.20;;;20.00;99.90;;;;;;4991223;28;20451;-82
2023/05/22 07:43:50;;;;;;;35.57;25.13;;;19.90;99.90;;;;;;4891836;28;20483;-83
2023/05/22 07:46:34;;;;;;;36.07;24.47;;;19.90;99.90;;;;;;4971206;28;20459;-83
2023/05/22 07:49:23;;;;;;;32.73;22.00;;;19.90;99.90;;;;;;4989579;28;20442;-82
2023/05/22 07:52:34;;;;;;;33.73;23.93;;;19.90;99.90;;;;;;4985898;28;20483;-83
2023/05/22 07:55:21;;;;;;;37.20;26.10;;;20.00;99.90;;;;;;4961374;28;20472;-82
2023/05/22 07:58:03;;;;;;;38.83;26.50;;;20.00;99.90;;;;;;4962456;28;20471;-83
2023/05/22 08:00:56;;;;;;;37.20;25.23;;;20.10;99.90;;;;;;5027391;28;20422;-81
2023/05/22 08:03:45;;;;;;;;;;;;;;;;;;;;;
2023/05/22 08:06:24;;;;;;;32.60;25.53;;;20.20;99.90;;;;;;5082544;28;20513;-82
2023/05/22 08:09:09;;;;;;;37.67;27.50;;;20.20;99.90;;;;;;5061938;28;20499;-84
2023/05/22 08:11:59;;;;;;;39.57;27.73;;;20.30;99.90;;;;;;5059831;28;20531;-83
2023/05/22 08:14:44;;;;;;;39.10;28.23;;;20.30;99.90;;;;;;5084325;22;20487;-83
2023/05/22 08:17:48;;;;;;;41.23;28.97;;;20.30;99.90;;;;;;5085944;28;20439;-82
2023/05/22 08:24:00;;;;;;;36.57;27.63;;;20.30;99.90;;;;;;5059662;28;20523;-82
2023/05/22 08:26:59;;;;;;;39.37;27.07;;;20.40;99.90;;;;;;5058910;28;20443;-82
2023/05/22 08:30:10;;;;;;;37.20;25.97;;;20.30;99.90;;;;;;5059724;28;20447;-84
2023/05/22 08:33:14;;;;;;;39.83;27.67;;;20.30;99.90;;;;;;5038530;28;20435;-85
2023/05/22 08:36:23;;;;;;;37.70;28.17;;;20.40;99.90;;;;;;5075517;28;20460;-83
2023/05/22 08:39:37;;;;;;;35.90;27.10;;;20.40;99.90;;;;;;5061087;28;20496;-84
2023/05/22 08:46:40;;;;;;;34.50;25.73;;;20.50;99.90;;;;;;4899376;28;20471;-83
2023/05/22 08:49:23;;;;;;;34.17;25.87;;;20.40;99.90;;;;;;4985939;28;20978;-84
2023/05/22 08:56:48;;;;;;;;;;;;;;;;;;;;;
2023/05/22 09:07:58;;;;;;;34.27;24.57;;;20.80;99.90;;;;;;4996179;28;20429;-84
2023/05/22 09:11:57;;;;;;;31.33;23.60;;;20.80;99.90;;;;;;4986298;28;20613;-84
2023/05/22 09:15:15;;;;;;;38.47;26.37;;;20.80;99.90;;;;;;4961033;28;20619;-83
2023/05/22 09:30:33;;;;;;;;;;;;;;;;;;;;;
2023/05/22 09:41:59;;;;;;;31.77;26.03;;;20.60;99.90;;;;;;1268717;22;20789;-83
2023/05/22 09:45:30;;;;;;;30.00;22.13;;;20.60;99.90;;;;;;4990363;28;20494;-84
2023/05/22 09:56:13;;;;;;;23.07;17.60;;;21.00;99.90;;;;;;4959426;28;21076;-83
2023/05/22 09:59:20;;;;;;;24.17;18.50;;;20.80;99.90;;;;;;4943803;28;20449;-84
2023/05/22 10:03:04;;;;;;;25.63;18.63;;;20.60;99.90;;;;;;4949405;28;20441;-85
2023/05/22 10:06:30;;;;;;;25.93;19.60;;;20.50;99.90;;;;;;4885400;29;20530;-84
2023/05/22 10:10:30;;;;;;;28.20;20.30;;;20.60;99.90;;;;;;4887913;29;20461;-82
2023/05/22 10:13:49;;;;;;;26.10;18.43;;;20.70;99.90;;;;;;4902889;29;20532;-82
2023/05/22 10:16:46;;;;;;;33.80;21.63;;;21.00;99.90;;;;;;4976641;28;20441;-82
2023/05/22 10:19:50;;;;;;;32.40;21.63;;;21.00;99.90;;;;;;4959025;28;20472;-82
2023/05/22 10:22:43;;;;;;;29.80;19.97;;;20.90;99.90;;;;;;4979290;28;20452;-82
2023/05/22 10:25:44;;;;;;;;;;;;;;;;;;;;;
2023/05/22 10:40:44;;;;;;;33.17;24.40;;;20.90;99.90;;;;;;4899883;28;20607;-82
2023/05/22 10:46:47;;;;;;;30.37;23.33;;;21.00;99.90;;;;;;1281590;26;20471;-82
2023/05/22 10:50:22;;;;;;;33.10;23.20;;;21.00;99.90;;;;;;5046068;28;20481;-83
2023/05/22 10:57:23;;;;;;;29.17;22.53;;;21.20;99.90;;;;;;5051625;28;20466;-83
2023/05/22 11:00:45;;;;;;;32.27;19.73;;;21.30;99.90;;;;;;5052080;28;20509;-83
2023/05/22 11:03:23;;;;;;;30.13;20.70;;;21.40;99.90;;;;;;5047288;28;20524;-82
2023/05/22 11:07:11;;;;;;;29.60;21.70;;;21.50;99.70;;;;;;5067735;28;20444;-83
2023/05/22 11:10:04;;;;;;;35.27;22.67;;;21.60;99.50;;;;;;4953211;28;20456;-84
2023/05/22 11:12:54;;;;;;;36.10;22.50;;;21.60;99.60;;;;;;5072148;28;20498;-82
2023/05/22 11:15:48;;;;;;;36.30;24.10;;;21.80;99.30;;;;;;5056385;28;20561;-82
2023/05/22 11:18:31;;;;;;;33.73;24.70;;;21.70;98.70;;;;;;5053692;28;20516;-84
2023/05/22 11:21:16;;;;;;;32.27;23.67;;;21.80;98.90;;;;;;5056479;28;20456;-82
2023/05/22 11:24:01;;;;;;;33.37;22.37;;;21.80;98.80;;;;;;5054533;28;20969;-83
2023/05/22 11:26:53;;;;;;;33.77;22.90;;;21.90;98.80;;;;;;5051758;28;20444;-84
2023/05/22 11:30:22;;;;;;;;;;;;;;;;;;;;;
2023/05/22 11:34:20;;;;;;;35.30;23.00;;;22.10;98.20;;;;;;5062939;28;20443;-83
2023/05/22 11:37:51;;;;;;;29.13;21.70;;;22.20;97.70;;;;;;5037083;28;20544;-83
2023/05/22 11:41:11;;;;;;;29.10;22.03;;;22.20;97.60;;;;;;5039232;28;20483;-82
2023/05/22 12:00:00;;;;;;;28.73;20.07;;;22.80;96.40;;;;;;4903320;29;20522;-82
2023/05/22 12:03:24;;;;;;;25.37;20.20;;;22.60;96.50;;;;;;4899898;29;20554;-81
2023/05/22 12:10:20;;;;;;;23.53;19.10;;;22.90;96.60;;;;;;4841252;29;21002;-83
2023/05/22 12:13:09;;;;;;;28.03;20.97;;;23.30;96.20;;;;;;4828088;29;20481;-82
2023/05/22 12:20:48;;;;;;;25.77;21.30;;;23.30;95.60;;;;;;4812534;29;20455;-82
2023/05/22 12:24:36;;;;;;;;;;;;;;;;;;;;;
2023/05/22 12:31:54;;;;;;;27.53;20.07;;;23.70;94.70;;;;;;4900756;29;20490;-84
2023/05/22 12:34:51;;;;;;;28.40;20.30;;;23.80;94.60;;;;;;4979363;28;20487;-83
2023/05/22 12:41:53;;;;;;;28.93;20.50;;;24.20;94.30;;;;;;4996271;28;20434;-82
2023/05/22 12:45:11;;;;;;;24.23;19.00;;;24.40;93.60;;;;;;4968431;28;20469;-82
2023/05/22 12:48:45;;;;;;;26.20;20.53;;;24.70;93.40;;;;;;4975672;28;20447;-84
2023/05/22 12:52:06;;;;;;;25.30;18.93;;;24.70;92.90;;;;;;4883624;29;20489;-82
2023/05/22 12:59:24;;;;;;;26.67;19.07;;;24.80;92.60;;;;;;4860775;29;20993;-81
2023/05/22 13:02:39;;;;;;;25.03;20.30;;;24.80;92.50;;;;;;4912394;29;20479;-82
2023/05/22 13:05:47;;;;;;;24.93;17.67;;;24.90;92.40;;;;;;4937035;28;20519;-82
2023/05/22 13:09:18;;;;;;;27.10;19.40;;;25.20;92.30;;;;;;4931830;29;20514;-84
2023/05/22 13:12:53;;;;;;;;;;;;;;;;;;;;;
2023/05/22 13:16:35;;;;;;;23.37;17.03;;;25.90;90.60;;;;;;5023479;22;20483;-83
2023/05/22 13:23:26;;;;;;;25.23;18.20;;;25.40;91.10;;;;;;4969598;28;20488;-84
2023/05/22 13:30:42;;;;;;;21.43;17.27;;;25.10;91.40;;;;;;4952611;28;20452;-83
2023/05/22 13:33:43;;;;;;;25.07;18.27;;;25.10;91.80;;;;;;4868405;29;20501;-83
2023/05/22 13:36:59;;;;;;;21.30;16.13;;;25.00;91.70;;;;;;4890702;29;20439;-83
2023/05/22 13:40:23;;;;;;;27.30;19.70;;;25.10;92.10;;;;;;4790216;29;20615;-83
2023/05/22 13:43:43;;;;;;;27.13;19.57;;;25.10;91.50;;;;;;4775726;29;20538;-82
2023/05/22 13:46:33;;;;;;;24.60;19.20;;;24.90;91.80;;;;;;4780371;29;20520;-82
2023/05/22 13:53:23;;;;;;;24.33;18.00;;;25.20;91.90;;;;;;4796631;29;20484;-83
2023/05/22 13:59:59;;;;;;;;;;;;;;;;;;;;;
2023/05/22 14:03:17;;;;;;;26.30;18.60;;;25.20;91.80;;;;;;4845312;29;20437;-83
2023/05/22 14:06:30;;;;;;;;;;;;;;;;;;;;;
2023/05/22 14:09:34;;;;;;;27.63;18.93;;;25.30;91.60;;;;;;4903086;28;20451;-84
2023/05/22 14:12:55;;;;;;;30.10;19.43;;;25.20;91.70;;;;;;5012295;28;20482;-83
2023/05/22 14:15:56;;;;;;;28.10;18.90;;;25.10;91.80;;;;;;4994956;28;20516;-84
2023/05/22 14:19:10;;;;;;;29.53;21.63;;;24.90;92.20;;;;;;4962697;28;21067;-83
2023/05/22 14:22:14;;;;;;;27.60;17.90;;;24.90;92.10;;;;;;4988152;28;20485;-83
2023/05/22 14:25:43;;;;;;;30.93;19.60;;;25.00;92.20;;;;;;4960074;28;20853;-84
2023/05/22 14:28:16;;;;;;;28.20;21.10;;;25.10;92.00;;;;;;4993414;28;21015;-84
2023/05/22 14:31:16;;;;;;;34.40;22.47;;;25.20;91.80;;;;;;4983551;28;20889;-84
2023/05/22 14:38:16;;;;;;;29.97;19.67;;;24.90;92.10;;;;;;4990097;28;20454;-82
2023/05/22 14:44:14;;;;;;;31.13;20.57;;;25.10;92.10;;;;;;4995053;28;20831;-84
2023/05/22 14:47:29;;;;;;;27.63;21.40;;;25.20;91.80;;;;;;4980173;28;20447;-85
2023/05/22 14:55:16;;;;;;;32.67;22.20;;;25.10;91.80;;;;;;5107977;22;20560;-84
2023/05/22 14:58:13;;;;;;;25.03;18.13;;;24.90;91.80;;;;;;5064569;28;20430;-84
2023/05/22 15:01:26;;;;;;;30.17;19.40;;;24.90;92.10;;;;;;5069753;28;20423;-82
2023/05/22 15:04:46;;;;;;;35.33;21.80;;;25.10;91.70;;;;;;5070744;28;20541;-84
2023/05/22 15:07:58;;;;;;;33.03;20.93;;;25.00;91.80;;;;;;4967268;28;20451;-82
2023/05/22 15:11:11;;;;;;;30.60;19.47;;;25.00;91.80;;;;;;5045673;28;20497;-82
2023/05/22 15:15:01;;;;;;;31.77;20.77;;;24.90;92.40;;;;;;5067673;28;20454;-82
2023/05/22 15:17:38;;;;;;;32.60;21.30;;;25.00;92.50;;;;;;5075711;28;20501;-82
2023/05/22 15:21:16;;;;;;;28.30;19.27;;;25.20;91.80;;;;;;5002668;28;20871;-83
2023/05/22 15:25:10;;;;;;;;;;;;;;;;;;;;;
2023/05/22 15:29:02;;;;;;;;;;;;;;;;;;;;;
2023/05/22 15:32:30;;;;;;;36.23;21.07;;;24.90;92.30;;;;;;4856874;29;20502;-82
2023/05/22 15:35:32;;;;;;;36.10;21.80;;;24.80;92.50;;;;;;5028981;22;20495;-84
2023/05/22 15:38:40;;;;;;;35.13;22.57;;;24.70;92.80;;;;;;5032217;28;20449;-82
2023/05/22 15:41:49;;;;;;;35.37;22.97;;;24.50;92.90;;;;;;5030345;28;21227;-84
2023/05/22 15:45:49;;;;;;;;;;;;;;;;;;;;;
2023/05/22 15:49:03;;;;;;;31.87;21.30;;;24.40;93.00;;;;;;5010857;28;20948;-83
2023/05/22 15:59:54;;;;;;;34.13;22.30;;;24.50;93.20;;;;;;5090709;28;20429;-81
2023/05/22 16:03:22;;;;;;;32.50;24.07;;;24.50;93.30;;;;;;5080923;28;21080;-83
2023/05/22 16:37:04;;;;;;;34.37;23.53;;;24.20;94.00;;;;;;4914025;29;20458;-83
2023/05/22 16:43:43;;;;;;;;;;;;;;;;;;;;;
2023/05/22 16:51:17;;;;;;;38.00;25.23;;;24.20;93.90;;;;;;4882914;29;20980;-83
2023/05/22 16:54:09;;;;;;;36.20;23.90;;;24.00;94.30;;;;;;4922023;29;20457;-83
2023/05/22 16:57:32;;;;;;;34.30;22.80;;;24.00;94.60;;;;;;4999505;28;20850;-83
2023/05/22 17:01:09;;;;;;;37.93;26.20;;;24.10;94.70;;;;;;5029062;28;20456;-82
2023/05/22 17:04:18;;;;;;;39.53;23.57;;;24.10;94.30;;;;;;4900675;29;20488;-82
2023/05/22 17:07:55;;;;;;;38.97;24.53;;;24.00;94.40;;;;;;4909606;29;20453;-83
2023/05/22 17:15:05;;;;;;;35.47;25.83;;;23.80;94.90;;;;;;4927490;28;20447;-83
2023/05/22 17:18:11;;;;;;;35.90;23.97;;;23.80;95.00;;;;;;4943480;29;20425;-83
2023/05/22 17:25:58;;;;;;;38.00;24.07;;;23.90;95.10;;;;;;4863603;29;20569;-83
2023/05/22 17:28:43;;;;;;;32.20;23.60;;;23.90;95.20;;;;;;4917131;29;20466;-84
2023/05/22 17:31:56;;;;;;;30.00;24.07;;;23.90;95.10;;;;;;4941182;28;20440;-84
2023/05/22 17:34:58;;;;;;;32.23;24.60;;;23.90;95.20;;;;;;5016334;28;20486;-83
2023/05/22 17:42:25;;;;;;;35.10;24.30;;;23.80;95.30;;;;;;4992871;28;20538;-84
2023/05/22 17:45:33;;;;;;;33.93;24.27;;;23.80;95.40;;;;;;4914268;29;20482;-84
2023/05/22 17:48:51;;;;;;;;;;;;;;;;;;;;;
2023/05/22 17:55:17;;;;;;;32.40;24.40;;;23.60;95.40;;;;;;4865068;29;20484;-84
2023/05/22 17:58:57;;;;;;;32.63;23.80;;;23.60;95.50;;;;;;4867771;29;20470;-83
2023/05/22 18:02:18;;;;;;;31.37;23.20;;;23.50;95.60;;;;;;4874848;29;20588;-83
2023/05/22 18:09:31;;;;;;;25.27;22.10;;;23.40;95.70;;;;;;4937114;29;20543;-85
2023/05/22 18:27:12;;;;;;;23.10;17.53;;;23.00;96.30;;;;;;5041941;28;20496;-83
2023/05/22 18:30:32;;;;;;;16.77;13.33;;;23.00;96.20;;;;;;5038048;28;20532;-83
2023/05/22 18:34:12;;;;;;;15.40;12.30;;;23.00;95.50;;;;;;4999043;28;20521;-84
2023/05/22 18:41:21;;;;;;;10.23;9.23;;;22.90;95.20;;;;;;4958342;28;20471;-84
2023/05/22 18:56:53;;;;;;;6.50;5.90;;;22.70;94.30;;;;;;4943504;29;20473;-82
2023/05/22 19:00:30;;;;;;;;;;;;;;;;;;;;;
2023/05/22 19:11:21;;;;;;;6.37;5.77;;;22.70;94.10;;;;;;4900429;29;20437;-82
2023/05/22 19:17:25;;;;;;;7.13;6.27;;;22.60;94.10;;;;;;5032394;28;20450;-82
2023/05/22 19:28:11;;;;;;;;;;;;;;;;;;;;;
2023/05/22 19:32:20;;;;;;;;;;;;;;;;;;;;;
2023/05/22 19:38:22;;;;;;;;;;;;;;;;;;;;;
2023/05/22 19:41:21;;;;;;;6.90;6.27;;;22.20;95.80;;;;;;5040018;28;20450;-83
2023/05/22 19:52:57;;;;;;;7.57;6.87;;;22.10;95.70;;;;;;4949171;28;20468;-83
2023/05/22 20:30:11;;;;;;;11.30;9.10;;;21.90;97.90;;;;;;4992315;28;20450;-83
2023/05/22 20:32:54;;;;;;;8.83;7.93;;;21.80;97.90;;;;;;4984240;28;20562;-83
2023/05/22 20:36:21;;;;;;;9.40;8.33;;;21.80;98.10;;;;;;5029083;22;20539;-83
2023/05/22 20:39:11;;;;;;;11.03;8.73;;;21.70;98.10;;;;;;5028285;28;20448;-82
2023/05/22 20:42:13;;;;;;;10.37;8.50;;;21.70;98.10;;;;;;5033583;28;20479;-83
2023/05/22 20:45:25;;;;;;;10.73;9.10;;;21.70;98.30;;;;;;5023339;28;20461;-82
2023/05/22 20:48:13;;;;;;;9.93;7.57;;;21.60;98.30;;;;;;5009693;28;20480;-82
2023/05/22 20:51:04;;;;;;;9.20;8.30;;;21.60;98.40;;;;;;5005098;28;20492;-83
2023/05/22 20:54:27;;;;;;;;;;;;;;;;;;;;;
2023/05/22 20:57:38;;;;;;;9.83;8.80;;;21.60;98.40;;;;;;5013860;28;20557;-82
2023/05/22 21:01:02;;;;;;;8.57;7.77;;;21.50;98.50;;;;;;4940000;29;20433;-82
2023/05/22 21:04:15;;;;;;;8.23;7.43;;;21.50;98.60;;;;;;4890487;29;20484;-83
2023/05/22 21:07:09;;;;;;;8.07;7.33;;;21.50;98.50;;;;;;4897242;29;20967;-83
2023/05/22 21:14:42;;;;;;;10.60;7.80;;;21.40;98.70;;;;;;4906227;29;20545;-82
2023/05/22 21:18:25;;;;;;;9.80;8.80;;;21.40;98.70;;;;;;4881852;29;20443;-81
2023/05/22 21:21:40;;;;;;;9.73;8.77;;;21.30;98.90;;;;;;4869409;29;20837;-83
2023/05/22 21:28:16;;;;;;;11.73;8.50;;;21.10;99.70;;;;;;4958689;29;20555;-84
2023/05/22 21:31:06;;;;;;;10.40;9.13;;;21.10;99.70;;;;;;4933315;29;20511;-84
2023/05/22 21:34:09;;;;;;;;;;;;;;;;;;;;;
2023/05/22 21:36:47;;;;;;;12.20;9.67;;;21.00;99.90;;;;;;5014215;28;20480;-83
2023/05/22 21:39:30;;;;;;;9.47;8.10;;;20.90;99.80;;;;;;5015088;28;20574;-84
2023/05/22 21:42:05;;;;;;;9.50;8.60;;;20.90;99.90;;;;;;5011500;28;20568;-82
2023/05/22 21:45:18;;;;;;;9.90;8.50;;;20.90;99.90;;;;;;5014585;28;20466;-82
2023/05/22 21:48:15;;;;;;;8.60;7.70;;;20.80;99.90;;;;;;5011143;28;20456;-83
2023/05/22 21:51:26;;;;;;;7.90;7.10;;;20.80;99.90;;;;;;4958437;28;21010;-83
2023/05/22 21:54:47;;;;;;;;;;;;;;;;;;;;;
2023/05/22 21:57:34;;;;;;;9.13;7.40;;;20.70;99.70;;;;;;5006961;28;20454;-84
2023/05/22 22:00:16;;;;;;;7.90;7.10;;;20.70;99.40;;;;;;5010601;28;20502;-84
2023/05/22 22:03:12;;;;;;;7.10;6.20;;;20.70;99.20;;;;;;5009744;28;21037;-84
2023/05/22 22:06:11;;;;;;;8.07;6.87;;;20.60;98.90;;;;;;5016683;28;20472;-83
2023/05/22 22:09:28;;;;;;;9.07;5.90;;;20.60;98.60;;;;;;5007151;28;20545;-83
2023/05/22 22:12:10;;;;;;;6.40;5.80;;;20.50;98.30;;;;;;4983661;28;20446;-84
2023/05/22 22:15:16;;;;;;;11.90;9.73;;;20.40;97.80;;;;;;5006497;28;20477;-82
2023/05/22 22:21:40;;;;;;;6.40;5.00;;;20.40;97.60;;;;;;4976067;28;20440;-82
2023/05/22 22:24:55;;;;;;;5.63;4.70;;;20.30;97.20;;;;;;4872486;29;20476;-84
2023/05/22 22:31:25;;;;;;;4.50;4.00;;;20.30;97.10;;;;;;4868450;29;20464;-83
2023/05/22 22:34:55;;;;;;;5.07;4.57;;;20.20;96.70;;;;;;4829129;29;20502;-83
2023/05/22 22:37:50;;;;;;;4.67;4.27;;;20.20;96.70;;;;;;4860605;29;20457;-84
2023/05/22 22:40:40;;;;;;;6.20;4.40;;;20.10;96.20;;;;;;4871421;29;20452;-82
2023/05/22 22:43:37;;;;;;;;;;;;;;;;;;;;;
2023/05/22 22:46:25;;;;;;;6.80;4.47;;;20.00;96.30;;;;;;4877532;29;20459;-83
2023/05/22 22:49:00;;;;;;;4.00;3.70;;;20.00;96.20;;;;;;4870507;29;21221;-82
2023/05/22 22:52:50;;;;;;;4.40;4.00;;;19.90;96.20;;;;;;4903757;29;20592;-83
2023/05/22 22:55:33;;;;;;;4.30;3.90;;;19.90;96.20;;;;;;4891435;29;20478;-83
2023/05/22 23:02:17;;;;;;;5.30;4.40;;;19.80;96.40;;;;;;4944117;28;20454;-85
2023/05/22 23:05:02;;;;;;;4.50;4.10;;;19.90;96.60;;;;;;4998151;28;20477;-81
2023/05/22 23:08:06;;;;;;;4.80;4.40;;;19.80;96.60;;;;;;4999714;28;20486;-83
2023/05/22 23:11:06;;;;;;;4.40;4.00;;;19.80;96.90;;;;;;5011752;28;20488;-82
2023/05/22 23:14:02;;;;;;;5.97;5.10;;;19.70;97.20;;;;;;5006302;28;20484;-82
2023/05/22 23:16:53;;;;;;;5.47;4.97;;;19.70;97.50;;;;;;5002235;28;20458;-82
2023/05/22 23:23:10;;;;;;;5.27;4.77;;;19.70;98.10;;;;;;4991346;28;20458;-84
2023/05/22 23:26:09;;;;;;;5.57;4.40;;;19.60;98.20;;;;;;4954471;28;20478;-83
2023/05/22 23:29:24;;;;;;;5.33;4.70;;;19.60;98.50;;;;;;5005914;28;20458;-84
2023/05/22 23:32:11;;;;;;;6.23;5.17;;;19.50;98.90;;;;;;5008069;28;20735;-82
2023/05/22 23:35:22;;;;;;;;;;;;;;;;;;;;;
2023/05/22 23:38:14;;;;;;;6.37;4.80;;;19.40;98.50;;;;;;4933408;29;20544;-84
2023/05/22 23:41:04;;;;;;;5.47;4.73;;;19.30;99.00;;;;;;4932208;29;20454;-82
2023/05/22 23:44:05;;;;;;;4.83;4.30;;;19.30;99.20;;;;;;4920282;29;20458;-81
2023/05/22 23:46:41;;;;;;;5.30;4.80;;;19.20;99.30;;;;;;4913128;29;20500;-82
2023/05/22 23:49:32;;;;;;;5.27;4.77;;;19.10;99.40;;;;;;4943958;29;20553;-83
2023/05/22 23:52:25;;;;;;;6.47;4.67;;;19.10;99.50;;;;;;4931882;29;20526;-83
2023/05/22 23:55:10;;;;;;;5.80;5.20;;;19.10;99.50;;;;;;4942447;29;21009;-84
2023/05/22 23:58:03;;;;;;;5.80;4.43;;;19.10;99.30;;;;;;4933965;29;20428;-83
